Time;durP1;ratioP1;P1;durP2;ratioP2;P2;SDS_P1;SDS_P2;PMS_P1;PMS_P2;Temp;Humidity;BMP_temperature;BMP_pressure;BME280_temperature;BME280_humidity;BME280_pressure;Samples;Min_cycle;Max_cycle;Signal;HPM_P1;HPM_P2
2021/12/21 00:00:02;;;;;;;30.67;19.27;;;-0.90;99.90;;;;;;5041763;28;20049;-85
2021/12/21 00:02:29;;;;;;;26.45;16.20;;;-0.80;99.90;;;;;;5039960;28;20401;-84
2021/12/21 00:04:55;;;;;;;30.45;17.77;;;-0.90;99.90;;;;;;5075922;28;20052;-85
2021/12/21 00:07:22;;;;;;;25.73;17.35;;;-0.90;99.90;;;;;;5080508;28;20049;-85
2021/12/21 00:09:49;;;;;;;22.98;15.00;;;-0.90;99.90;;;;;;5051923;28;20058;-84
2021/12/21 00:12:18;;;;;;;23.98;16.33;;;-0.80;99.90;;;;;;5047204;28;20059;-84
2021/12/21 00:14:56;;;;;;;29.85;16.33;;;-0.80;99.90;;;;;;5044831;28;20091;-84
2021/12/21 00:17:44;;;;;;;22.63;15.27;;;-0.90;99.90;;;;;;5036537;28;20040;-85
2021/12/21 00:20:24;;;;;;;28.17;16.58;;;-0.90;99.90;;;;;;5047632;28;20169;-84
2021/12/21 00:23:29;;;;;;;21.65;16.95;;;-0.90;99.90;;;;;;5042031;28;20107;-84
2021/12/21 00:25:50;;;;;;;18.90;15.70;;;-0.90;99.90;;;;;;5045248;28;20045;-84
2021/12/21 00:28:16;;;;;;;36.28;18.63;;;-1.00;99.90;;;;;;5034759;28;20136;-83
2021/12/21 00:30:43;;;;;;;22.23;14.20;;;-1.00;99.90;;;;;;5050654;28;20555;-83
2021/12/21 00:33:09;;;;;;;25.15;15.65;;;-1.00;99.90;;;;;;5049855;28;20049;-85
2021/12/21 00:35:36;;;;;;;40.08;17.50;;;-1.00;99.90;;;;;;5038397;28;20056;-84
2021/12/21 00:38:04;;;;;;;22.30;16.55;;;-1.00;99.90;;;;;;5042001;28;20049;-84
2021/12/21 00:40:30;;;;;;;24.52;15.65;;;-1.10;99.90;;;;;;5035616;28;20045;-83
2021/12/21 00:42:57;;;;;;;18.17;13.93;;;-1.10;99.90;;;;;;5049399;28;20049;-84
2021/12/21 00:45:23;;;;;;;21.45;14.95;;;-1.10;99.90;;;;;;5038527;28;20115;-84
2021/12/21 00:47:50;;;;;;;22.83;15.32;;;-1.10;99.90;;;;;;5039421;28;20041;-84
2021/12/21 00:50:17;;;;;;;19.67;14.65;;;-1.10;99.90;;;;;;5038185;28;20049;-84
2021/12/21 00:52:44;;;;;;;16.27;14.50;;;-1.10;99.90;;;;;;5037495;28;20084;-83
2021/12/21 00:55:10;;;;;;;27.25;17.08;;;-1.10;99.90;;;;;;5039516;28;20400;-84
2021/12/21 00:57:37;;;;;;;25.42;15.85;;;-1.10;99.90;;;;;;5039376;28;20053;-85
2021/12/21 01:00:04;;;;;;;25.10;17.40;;;-1.10;99.90;;;;;;5047589;28;20049;-84
2021/12/21 01:02:31;;;;;;;19.83;14.90;;;-1.10;99.90;;;;;;5048096;28;20558;-83
2021/12/21 01:04:58;;;;;;;26.40;16.10;;;-1.10;99.90;;;;;;5045002;28;20045;-85
2021/12/21 01:07:31;;;;;;;28.55;15.13;;;-1.20;99.90;;;;;;5057823;28;20060;-85
2021/12/21 01:10:29;;;;;;;22.80;15.93;;;-1.20;99.90;;;;;;5041803;28;20142;-86
2021/12/21 01:12:59;;;;;;;19.33;14.25;;;-1.20;99.90;;;;;;5044832;28;20090;-85
2021/12/21 01:15:43;;;;;;;25.77;15.20;;;-1.20;99.90;;;;;;5043979;28;20072;-85
2021/12/21 01:18:15;;;;;;;21.23;14.93;;;-1.30;99.90;;;;;;5048324;28;20056;-85
2021/12/21 01:20:47;;;;;;;18.02;14.05;;;-1.20;99.90;;;;;;5041168;28;20045;-83
2021/12/21 01:26:03;;;;;;;24.63;15.45;;;-1.30;99.90;;;;;;5029985;28;20049;-86
2021/12/21 01:28:39;;;;;;;16.58;13.90;;;-1.30;99.90;;;;;;5033508;28;20443;-85
2021/12/21 01:31:18;;;;;;;22.15;14.90;;;-1.40;99.90;;;;;;5039818;28;20513;-85
2021/12/21 01:33:56;;;;;;;19.40;14.20;;;-1.40;99.90;;;;;;5033564;28;20081;-85
2021/12/21 01:36:28;;;;;;;18.83;13.38;;;-1.40;99.90;;;;;;5073524;28;20061;-86
2021/12/21 01:39:01;;;;;;;28.30;14.85;;;-1.40;99.90;;;;;;5037242;28;20053;-85
2021/12/21 01:41:34;;;;;;;20.52;14.50;;;-1.40;99.90;;;;;;5041774;28;20049;-85
2021/12/21 01:44:13;;;;;;;21.70;13.15;;;-1.40;99.90;;;;;;5037289;28;20049;-85
2021/12/21 01:49:42;;;;;;;22.88;14.77;;;-1.40;99.90;;;;;;5046420;28;20044;-85
2021/12/21 01:52:08;;;;;;;18.38;14.60;;;-1.40;99.90;;;;;;5034582;28;20060;-85
2021/12/21 01:54:35;;;;;;;32.45;16.35;;;-1.40;99.90;;;;;;5045460;28;20049;-85
2021/12/21 01:57:01;;;;;;;18.33;15.25;;;-1.40;99.90;;;;;;5041563;28;20050;-85
2021/12/21 01:59:28;;;;;;;17.83;14.40;;;-1.40;99.90;;;;;;5047853;28;20075;-86
2021/12/21 02:01:54;;;;;;;19.45;14.27;;;-1.40;99.90;;;;;;5043553;28;20530;-85
2021/12/21 02:04:21;;;;;;;17.02;14.02;;;-1.40;99.90;;;;;;5039800;28;20072;-83
2021/12/21 02:06:49;;;;;;;20.25;14.88;;;-1.40;99.90;;;;;;5043122;28;20041;-84
2021/12/21 02:09:15;;;;;;;24.13;16.48;;;-1.50;99.90;;;;;;5048623;28;20057;-85
2021/12/21 02:11:42;;;;;;;22.73;14.48;;;-1.50;99.90;;;;;;5040275;28;20103;-88
2021/12/21 02:14:10;;;;;;;17.73;13.02;;;-1.50;99.90;;;;;;5050093;28;20045;-86
2021/12/21 02:16:44;;;;;;;21.20;15.25;;;-1.60;99.90;;;;;;5042347;28;20049;-89
2021/12/21 02:19:19;;;;;;;16.02;13.48;;;-1.60;99.90;;;;;;5044536;28;20121;-87
2021/12/21 02:21:49;;;;;;;19.88;13.68;;;-1.60;99.90;;;;;;5043786;28;20471;-86
2021/12/21 02:24:21;;;;;;;23.48;14.00;;;-1.70;99.90;;;;;;5049014;28;20132;-89
2021/12/21 02:26:51;;;;;;;19.90;13.27;;;-1.60;99.90;;;;;;5049046;28;20128;-87
2021/12/21 02:29:24;;;;;;;21.05;13.40;;;-1.70;99.90;;;;;;5048145;28;20112;-87
2021/12/21 02:31:51;;;;;;;21.20;12.10;;;-1.70;99.90;;;;;;5036842;28;20144;-87
2021/12/21 02:34:18;;;;;;;23.55;15.45;;;-1.80;99.90;;;;;;5032806;28;20047;-86
2021/12/21 02:36:44;;;;;;;16.95;12.70;;;-1.80;99.90;;;;;;5045996;28;20058;-85
2021/12/21 02:39:11;;;;;;;19.60;12.90;;;-1.80;99.90;;;;;;5050383;28;20046;-85
2021/12/21 02:41:37;;;;;;;17.45;13.18;;;-1.80;99.90;;;;;;5035077;28;20049;-85
2021/12/21 02:44:04;;;;;;;17.45;14.13;;;-1.80;99.90;;;;;;5034926;28;20057;-86
2021/12/21 02:46:30;;;;;;;17.92;14.35;;;-1.80;99.90;;;;;;5049899;28;20037;-85
2021/12/21 02:48:57;;;;;;;15.93;12.52;;;-1.80;99.90;;;;;;5038874;28;20057;-84
2021/12/21 02:51:23;;;;;;;19.42;12.98;;;-1.80;99.90;;;;;;5050207;28;20059;-85
2021/12/21 02:53:50;;;;;;;22.85;13.57;;;-1.80;99.90;;;;;;5051949;28;20045;-87
2021/12/21 02:56:16;;;;;;;14.45;12.68;;;-1.80;99.90;;;;;;5039098;28;20057;-87
2021/12/21 02:58:43;;;;;;;14.50;11.38;;;-1.80;99.90;;;;;;5043161;28;20056;-87
2021/12/21 03:01:09;;;;;;;21.00;12.68;;;-1.70;99.90;;;;;;5037871;28;20054;-86
2021/12/21 03:03:36;;;;;;;22.08;11.93;;;-1.70;99.90;;;;;;5042457;28;20045;-86
2021/12/21 03:06:05;;;;;;;16.40;11.60;;;-1.70;99.90;;;;;;5043644;28;20053;-86
2021/12/21 03:08:38;;;;;;;15.27;12.50;;;-1.70;99.90;;;;;;5035637;28;20098;-86
2021/12/21 03:11:12;;;;;;;18.75;13.38;;;-1.70;99.90;;;;;;5036944;28;20049;-86
2021/12/21 03:16:34;;;;;;;17.20;12.75;;;-1.70;99.90;;;;;;5007546;28;20193;-86
2021/12/21 03:19:01;;;;;;;15.93;11.85;;;-1.80;99.90;;;;;;5041215;28;20468;-85
2021/12/21 03:21:27;;;;;;;15.88;12.02;;;-1.80;99.90;;;;;;5037119;28;20057;-85
2021/12/21 03:23:54;;;;;;;21.33;13.00;;;-1.80;99.90;;;;;;5047316;28;20057;-85
2021/12/21 03:26:20;;;;;;;15.75;13.35;;;-1.80;99.90;;;;;;5035458;28;20060;-85
2021/12/21 03:28:47;;;;;;;20.63;12.43;;;-1.90;99.90;;;;;;5054160;28;20052;-85
2021/12/21 03:31:13;;;;;;;16.13;12.82;;;-1.90;99.90;;;;;;5043694;28;20053;-85
2021/12/21 03:33:40;;;;;;;20.42;13.65;;;-2.00;99.90;;;;;;5042020;28;20053;-85
2021/12/21 03:36:06;;;;;;;22.25;13.77;;;-2.00;99.90;;;;;;5035558;28;20057;-85
2021/12/21 03:38:34;;;;;;;17.80;12.98;;;-2.00;99.90;;;;;;5054101;28;20056;-86
2021/12/21 03:41:05;;;;;;;22.65;12.30;;;-2.00;99.90;;;;;;5036129;28;20044;-84
2021/12/21 03:43:31;;;;;;;19.95;12.93;;;-2.00;99.90;;;;;;5043625;28;20378;-84
2021/12/21 03:46:06;;;;;;;19.63;13.18;;;-2.00;99.90;;;;;;5037582;28;20079;-86
2021/12/21 03:48:33;;;;;;;21.70;14.65;;;-2.00;99.90;;;;;;5040574;28;20048;-85
2021/12/21 03:50:59;;;;;;;25.65;13.65;;;-2.10;99.90;;;;;;5044490;28;20063;-86
2021/12/21 03:53:26;;;;;;;19.98;14.15;;;-2.10;99.90;;;;;;5044023;28;20045;-86
2021/12/21 03:56:02;;;;;;;18.92;13.25;;;-2.10;99.90;;;;;;5051775;28;20052;-86
2021/12/21 03:58:29;;;;;;;38.75;14.30;;;-2.10;99.90;;;;;;5050887;28;20449;-85
2021/12/21 04:00:56;;;;;;;24.42;13.52;;;-2.00;99.90;;;;;;5046240;28;20400;-84
2021/12/21 04:03:22;;;;;;;18.13;11.50;;;-2.10;99.90;;;;;;5039584;28;20750;-86
2021/12/21 04:05:49;;;;;;;20.23;13.35;;;-2.10;99.90;;;;;;5049720;28;20095;-85
2021/12/21 04:08:15;;;;;;;17.65;13.93;;;-2.00;99.90;;;;;;5048027;28;20051;-85
2021/12/21 04:10:42;;;;;;;29.27;14.77;;;-2.00;99.90;;;;;;5045553;28;20052;-86
2021/12/21 04:13:10;;;;;;;22.10;13.57;;;-2.00;99.90;;;;;;5034464;28;20049;-85
2021/12/21 04:15:42;;;;;;;17.48;13.40;;;-2.10;99.90;;;;;;5044231;28;20117;-86
2021/12/21 04:18:09;;;;;;;22.33;14.13;;;-2.10;99.90;;;;;;5050106;28;20045;-84
2021/12/21 04:20:35;;;;;;;22.48;13.00;;;-2.10;99.90;;;;;;5044573;28;20044;-86
2021/12/21 04:23:02;;;;;;;29.08;14.55;;;-2.10;99.90;;;;;;5036401;28;20111;-86
2021/12/21 04:25:28;;;;;;;20.30;13.05;;;-2.10;99.90;;;;;;5040485;28;20049;-86
2021/12/21 04:27:55;;;;;;;22.85;12.90;;;-2.10;99.90;;;;;;5034093;28;20041;-85
2021/12/21 04:30:22;;;;;;;18.73;12.18;;;-2.20;99.90;;;;;;5046934;28;20099;-85
2021/12/21 04:32:48;;;;;;;16.95;11.75;;;-2.20;99.90;;;;;;5044720;28;20053;-86
2021/12/21 04:35:18;;;;;;;24.13;12.30;;;-2.20;99.90;;;;;;5047776;28;20056;-86
2021/12/21 04:37:48;;;;;;;21.85;13.60;;;-2.30;99.90;;;;;;5031267;28;20055;-86
2021/12/21 04:40:18;;;;;;;18.80;13.68;;;-2.30;99.90;;;;;;5036141;28;20045;-85
2021/12/21 04:42:45;;;;;;;20.92;12.68;;;-2.30;99.90;;;;;;5079877;28;20045;-86
2021/12/21 04:45:11;;;;;;;19.48;13.23;;;-2.30;99.90;;;;;;5048208;28;20045;-85
2021/12/21 04:47:38;;;;;;;18.05;11.82;;;-2.30;99.90;;;;;;5064186;28;20094;-86
2021/12/21 04:50:04;;;;;;;22.17;11.57;;;-2.30;99.90;;;;;;5043222;28;20057;-85
2021/12/21 04:52:31;;;;;;;18.23;12.55;;;-2.30;99.90;;;;;;5033030;28;20512;-85
2021/12/21 04:54:57;;;;;;;23.45;13.13;;;-2.30;99.90;;;;;;5046019;28;20045;-85
2021/12/21 04:57:24;;;;;;;16.52;11.90;;;-2.30;99.90;;;;;;5040054;28;20417;-85
2021/12/21 04:59:50;;;;;;;28.35;13.55;;;-2.30;99.90;;;;;;5047162;28;20053;-85
2021/12/21 05:02:17;;;;;;;16.77;11.98;;;-2.30;99.90;;;;;;5048348;28;20052;-85
2021/12/21 05:04:43;;;;;;;18.38;13.18;;;-2.30;99.90;;;;;;5040624;28;20048;-85
2021/12/21 05:07:12;;;;;;;22.70;12.43;;;-2.30;99.90;;;;;;5041243;28;20049;-84
2021/12/21 05:09:43;;;;;;;16.08;12.73;;;-2.30;99.90;;;;;;5040986;28;20131;-86
2021/12/21 05:12:11;;;;;;;16.48;12.10;;;-2.40;99.90;;;;;;5047664;28;20120;-86
2021/12/21 05:14:38;;;;;;;18.58;13.68;;;-2.40;99.90;;;;;;5040152;28;20049;-85
2021/12/21 05:17:05;;;;;;;16.55;13.68;;;-2.40;99.90;;;;;;5040803;28;20060;-86
2021/12/21 05:19:32;;;;;;;15.93;12.02;;;-2.30;99.90;;;;;;5041191;28;20127;-86
2021/12/21 05:21:58;;;;;;;19.50;10.45;;;-2.40;99.90;;;;;;5042215;28;20045;-87
2021/12/21 05:24:25;;;;;;;16.45;13.02;;;-2.40;99.90;;;;;;5046868;28;20515;-86
2021/12/21 05:26:51;;;;;;;17.25;11.38;;;-2.50;99.90;;;;;;5045566;28;20052;-87
2021/12/21 05:29:19;;;;;;;11.75;9.88;;;-2.50;99.90;;;;;;5033450;28;20484;-86
2021/12/21 05:31:45;;;;;;;14.45;12.02;;;-2.50;99.90;;;;;;5046960;28;20403;-85
2021/12/21 05:34:12;;;;;;;13.73;10.15;;;-2.40;99.90;;;;;;5043756;28;20049;-85
2021/12/21 05:36:38;;;;;;;17.33;13.35;;;-2.40;99.90;;;;;;5045840;28;20408;-86
2021/12/21 05:39:14;;;;;;;26.77;13.20;;;-2.40;99.90;;;;;;5048600;28;20107;-85
2021/12/21 05:41:48;;;;;;;15.15;11.60;;;-2.40;99.90;;;;;;5047053;28;20060;-84
2021/12/21 05:44:15;;;;;;;22.02;12.75;;;-2.40;99.90;;;;;;5040597;28;20103;-83
2021/12/21 05:46:41;;;;;;;22.15;13.55;;;-2.40;99.90;;;;;;5076878;28;20041;-86
2021/12/21 05:49:08;;;;;;;16.13;10.70;;;-2.40;99.90;;;;;;5042955;28;20135;-84
2021/12/21 05:51:35;;;;;;;20.80;11.57;;;-2.50;99.90;;;;;;5033291;28;20072;-85
2021/12/21 05:54:01;;;;;;;16.98;12.15;;;-2.50;99.90;;;;;;5038421;28;20056;-85
2021/12/21 05:56:28;;;;;;;27.35;12.82;;;-2.50;99.90;;;;;;5031757;28;20041;-86
2021/12/21 05:58:54;;;;;;;18.85;12.50;;;-2.50;99.90;;;;;;5035369;28;20049;-85
2021/12/21 06:01:21;;;;;;;23.52;13.85;;;-2.60;99.90;;;;;;5044389;28;20076;-85
2021/12/21 06:03:47;;;;;;;21.42;11.98;;;-2.60;99.90;;;;;;5041688;28;20439;-85
2021/12/21 06:06:16;;;;;;;22.45;11.60;;;-2.60;99.90;;;;;;5043264;28;20477;-85
2021/12/21 06:08:43;;;;;;;17.77;11.45;;;-2.70;99.90;;;;;;5038595;28;20065;-85
2021/12/21 06:11:09;;;;;;;23.92;12.38;;;-2.60;99.90;;;;;;5053258;28;20049;-86
2021/12/21 06:14:02;;;;;;;21.20;12.05;;;-2.70;99.90;;;;;;5038132;28;20059;-86
2021/12/21 06:27:22;;;;;;;27.20;14.30;;;-2.80;99.90;;;;;;5033103;28;20048;-86
2021/12/21 06:29:48;;;;;;;19.20;12.15;;;-2.80;99.90;;;;;;5064998;28;20060;-86
2021/12/21 06:32:15;;;;;;;18.65;10.70;;;-2.70;99.90;;;;;;5035510;28;20045;-85
2021/12/21 06:34:42;;;;;;;25.08;12.75;;;-2.70;99.90;;;;;;5033389;28;20038;-86
2021/12/21 06:37:08;;;;;;;15.63;11.00;;;-2.80;99.90;;;;;;5038995;28;20042;-85
2021/12/21 06:39:35;;;;;;;22.02;10.05;;;-2.70;99.90;;;;;;5036726;28;20056;-86
2021/12/21 06:42:01;;;;;;;15.60;11.60;;;-2.70;99.90;;;;;;5033422;28;20049;-85
2021/12/21 06:44:28;;;;;;;23.88;11.05;;;-2.70;99.90;;;;;;5031238;28;20076;-86
2021/12/21 06:47:09;;;;;;;23.80;12.48;;;-2.80;99.90;;;;;;5068788;28;20404;-87
2021/12/21 06:52:19;;;;;;;22.00;13.65;;;-2.70;99.90;;;;;;5068516;28;20048;-86
2021/12/21 06:54:46;;;;;;;17.88;12.93;;;-2.70;99.90;;;;;;5033268;28;20049;-87
2021/12/21 06:57:13;;;;;;;19.00;11.63;;;-2.70;99.90;;;;;;5038576;28;20046;-87
2021/12/21 06:59:39;;;;;;;18.50;11.55;;;-2.70;99.90;;;;;;5038706;28;20057;-87
2021/12/21 07:02:06;;;;;;;19.67;13.32;;;-2.70;99.90;;;;;;5034742;28;20052;-85
2021/12/21 07:04:32;;;;;;;23.13;13.07;;;-2.70;99.90;;;;;;5037971;28;20048;-86
2021/12/21 07:06:59;;;;;;;24.55;12.32;;;-2.70;99.90;;;;;;5036880;28;20100;-86
2021/12/21 07:09:32;;;;;;;24.83;14.30;;;-2.70;99.90;;;;;;5034462;28;20049;-84
2021/12/21 07:12:17;;;;;;;20.42;14.38;;;-2.70;99.90;;;;;;5039758;28;20060;-85
2021/12/21 07:20:27;;;;;;;20.23;13.80;;;-2.80;99.90;;;;;;5066473;27;20406;-85
2021/12/21 07:22:53;;;;;;;20.45;12.77;;;-2.80;99.90;;;;;;5065808;28;20049;-84
2021/12/21 07:25:20;;;;;;;17.65;13.20;;;-2.80;99.90;;;;;;5065476;28;20056;-86
2021/12/21 07:27:47;;;;;;;23.65;14.80;;;-2.80;99.90;;;;;;5065354;28;20041;-86
2021/12/21 07:30:13;;;;;;;23.15;12.23;;;-2.80;99.90;;;;;;5063937;28;20049;-87
2021/12/21 07:32:40;;;;;;;20.15;12.60;;;-2.80;99.90;;;;;;5064807;28;20041;-87
2021/12/21 07:35:06;;;;;;;22.88;13.98;;;-2.80;99.90;;;;;;5065212;28;20052;-86
2021/12/21 07:37:33;;;;;;;21.77;12.38;;;-2.80;99.90;;;;;;5064386;28;20476;-86
2021/12/21 07:39:59;;;;;;;18.27;11.55;;;-2.80;99.90;;;;;;5065331;28;20480;-86
2021/12/21 07:42:26;;;;;;;18.83;13.23;;;-2.80;99.90;;;;;;5069682;28;20045;-85
2021/12/21 07:44:52;;;;;;;22.08;12.38;;;-2.80;99.90;;;;;;5067999;28;20091;-84
2021/12/21 07:47:19;;;;;;;23.35;12.75;;;-2.80;99.90;;;;;;5064263;28;20048;-85
2021/12/21 07:49:45;;;;;;;28.08;14.93;;;-2.80;99.90;;;;;;5063134;28;20083;-86
2021/12/21 07:52:12;;;;;;;22.83;12.55;;;-2.80;99.90;;;;;;5064871;28;20048;-85
2021/12/21 07:54:39;;;;;;;25.63;12.90;;;-2.90;99.90;;;;;;5064475;28;20056;-85
2021/12/21 07:57:06;;;;;;;26.23;12.02;;;-2.90;99.90;;;;;;5064478;28;20049;-86
2021/12/21 07:59:33;;;;;;;17.02;13.25;;;-2.80;99.90;;;;;;5063175;28;20132;-84
2021/12/21 08:01:59;;;;;;;26.10;14.35;;;-2.90;99.90;;;;;;5063963;28;20044;-84
2021/12/21 08:04:28;;;;;;;20.58;14.00;;;-2.90;99.90;;;;;;5064428;28;20048;-84
2021/12/21 08:06:56;;;;;;;22.05;12.63;;;-2.90;99.90;;;;;;5063377;28;20127;-85
2021/12/21 08:09:25;;;;;;;18.35;12.13;;;-2.80;99.90;;;;;;5063469;28;20068;-85
2021/12/21 08:14:36;;;;;;;25.20;14.73;;;-2.80;99.90;;;;;;5054279;28;20045;-87
2021/12/21 08:17:02;;;;;;;22.90;13.05;;;-2.70;99.90;;;;;;5065458;28;20550;-87
2021/12/21 08:19:29;;;;;;;22.52;14.43;;;-2.70;99.90;;;;;;5063925;28;20060;-84
2021/12/21 08:21:55;;;;;;;17.20;12.10;;;-2.70;99.90;;;;;;5063245;28;20057;-87
2021/12/21 08:24:22;;;;;;;20.15;12.30;;;-2.60;99.90;;;;;;5062165;28;20052;-86
2021/12/21 08:26:48;;;;;;;21.20;13.98;;;-2.60;99.90;;;;;;5064120;28;20051;-87
2021/12/21 08:29:15;;;;;;;17.52;13.07;;;-2.40;99.90;;;;;;5065087;28;20045;-86
2021/12/21 08:31:41;;;;;;;29.85;14.02;;;-2.40;99.90;;;;;;5052219;28;20045;-88
2021/12/21 08:34:10;;;;;;;24.83;12.10;;;-2.20;99.90;;;;;;5051456;28;20063;-86
2021/12/21 08:36:37;;;;;;;22.75;13.13;;;-2.20;99.90;;;;;;5051514;28;20106;-90
2021/12/21 08:39:04;;;;;;;19.10;11.25;;;-2.10;99.90;;;;;;5044612;28;20112;-88
2021/12/21 08:41:32;;;;;;;18.45;12.90;;;-2.00;99.90;;;;;;5052573;28;20076;-90
2021/12/21 08:43:59;;;;;;;22.27;13.32;;;-1.90;99.90;;;;;;5039608;28;20045;-89
2021/12/21 08:46:26;;;;;;;20.95;13.55;;;-1.90;99.90;;;;;;5042690;28;20124;-89
2021/12/21 08:48:52;;;;;;;16.60;12.57;;;-1.70;99.90;;;;;;5046686;28;20480;-88
2021/12/21 08:51:19;;;;;;;17.95;12.57;;;-1.60;99.90;;;;;;5048832;28;20056;-90
2021/12/21 08:53:45;;;;;;;19.33;12.88;;;-1.50;99.90;;;;;;5044666;28;20060;-87
2021/12/21 08:56:12;;;;;;;17.85;11.75;;;-1.50;99.90;;;;;;5045572;28;20507;-86
2021/12/21 08:58:38;;;;;;;20.48;12.45;;;-1.40;99.90;;;;;;5048426;28;20468;-86
2021/12/21 09:01:05;;;;;;;22.50;12.60;;;-1.40;99.90;;;;;;5049838;28;20061;-86
2021/12/21 09:03:32;;;;;;;17.52;13.55;;;-1.20;99.90;;;;;;5050781;28;20057;-86
2021/12/21 09:05:58;;;;;;;21.05;11.52;;;-1.20;99.90;;;;;;5045066;28;20067;-86
2021/12/21 09:08:25;;;;;;;20.67;12.73;;;-1.10;99.90;;;;;;5045294;28;21003;-84
2021/12/21 09:10:52;;;;;;;20.13;10.98;;;-1.00;99.90;;;;;;5048169;28;20052;-84
2021/12/21 09:13:19;;;;;;;20.67;12.25;;;-0.80;99.90;;;;;;5049210;28;20051;-84
2021/12/21 09:15:45;;;;;;;22.33;12.75;;;-0.70;99.90;;;;;;5048255;28;20060;-83
2021/12/21 09:18:12;;;;;;;11.75;9.30;;;-0.70;99.90;;;;;;5046665;28;20037;-83
2021/12/21 09:20:38;;;;;;;19.73;11.63;;;-0.60;99.90;;;;;;5039483;28;20060;-84
2021/12/21 09:23:05;;;;;;;15.15;11.00;;;-0.40;99.90;;;;;;5049563;28;20052;-82
2021/12/21 09:25:31;;;;;;;16.33;10.52;;;-0.40;99.90;;;;;;5050936;28;20068;-82
2021/12/21 09:27:58;;;;;;;12.77;9.82;;;-0.30;99.90;;;;;;5049433;28;20868;-83
2021/12/21 09:30:24;;;;;;;26.70;10.60;;;-0.20;99.90;;;;;;5046060;28;20137;-83
2021/12/21 09:32:52;;;;;;;22.15;10.77;;;-0.10;99.90;;;;;;5051198;28;20045;-82
2021/12/21 09:35:18;;;;;;;15.70;10.55;;;0.00;99.90;;;;;;5050654;28;20045;-82
2021/12/21 09:37:45;;;;;;;14.23;9.30;;;0.10;99.90;;;;;;5046110;28;20076;-82
2021/12/21 09:40:11;;;;;;;13.13;8.38;;;0.20;99.90;;;;;;5049642;28;20056;-82
2021/12/21 09:42:38;;;;;;;10.65;8.07;;;0.30;99.90;;;;;;5048596;28;20049;-81
2021/12/21 09:45:05;;;;;;;10.43;6.88;;;0.40;99.90;;;;;;5045169;28;20465;-81
2021/12/21 09:47:32;;;;;;;14.20;6.95;;;0.40;99.90;;;;;;5048243;28;20044;-82
2021/12/21 09:49:58;;;;;;;10.82;6.88;;;0.50;99.90;;;;;;5051215;28;20087;-81
2021/12/21 09:52:25;;;;;;;8.70;6.35;;;0.50;99.90;;;;;;5050647;28;20132;-81
2021/12/21 09:54:51;;;;;;;14.40;6.88;;;0.60;99.90;;;;;;5048320;28;20060;-81
2021/12/21 09:57:18;;;;;;;17.45;6.18;;;0.60;99.90;;;;;;5051459;28;20041;-82
2021/12/21 09:59:44;;;;;;;12.23;6.45;;;0.70;99.90;;;;;;5049550;28;20095;-82
2021/12/21 10:02:11;;;;;;;6.32;5.60;;;0.70;99.90;;;;;;5038166;28;20473;-81
2021/12/21 10:04:38;;;;;;;9.25;6.38;;;0.80;99.90;;;;;;5047596;28;20412;-81
2021/12/21 10:07:04;;;;;;;7.97;5.43;;;0.80;99.90;;;;;;5039117;28;20536;-82
2021/12/21 10:09:31;;;;;;;16.35;5.68;;;0.90;99.90;;;;;;5043793;28;20053;-81
2021/12/21 10:11:57;;;;;;;9.60;6.47;;;0.90;99.90;;;;;;5048782;28;20040;-85
2021/12/21 10:14:24;;;;;;;14.32;6.40;;;1.00;99.90;;;;;;5050506;28;20045;-82
2021/12/21 10:16:50;;;;;;;8.75;5.45;;;1.10;99.90;;;;;;5047425;28;20064;-82
2021/12/21 10:19:17;;;;;;;8.25;5.43;;;1.10;99.90;;;;;;5049559;28;20132;-82
2021/12/21 10:21:43;;;;;;;13.35;4.80;;;1.20;99.90;;;;;;5049900;28;20056;-82
2021/12/21 10:24:10;;;;;;;8.95;5.55;;;1.20;99.90;;;;;;5037709;28;20048;-82
2021/12/21 10:26:36;;;;;;;13.25;6.18;;;1.30;99.90;;;;;;5048848;28;20045;-82
2021/12/21 10:29:05;;;;;;;8.48;5.07;;;1.20;99.90;;;;;;5039452;28;20053;-81
2021/12/21 10:31:32;;;;;;;9.82;5.90;;;1.20;99.90;;;;;;5038348;28;20049;-82
2021/12/21 10:33:58;;;;;;;7.60;4.45;;;1.30;99.90;;;;;;5035341;28;20128;-81
2021/12/21 10:36:26;;;;;;;11.23;6.32;;;1.30;99.90;;;;;;5038928;28;20049;-82
2021/12/21 10:38:54;;;;;;;14.40;5.95;;;1.30;99.90;;;;;;5045106;28;20553;-81
2021/12/21 10:41:20;;;;;;;10.88;4.82;;;1.40;99.90;;;;;;5045591;28;20053;-81
2021/12/21 10:43:47;;;;;;;16.75;5.07;;;1.40;99.90;;;;;;5045051;28;20059;-81
2021/12/21 10:46:14;;;;;;;13.27;5.90;;;1.50;99.90;;;;;;5042732;28;20068;-81
2021/12/21 10:48:40;;;;;;;7.32;4.75;;;1.50;99.90;;;;;;5050608;28;20049;-82
2021/12/21 10:51:11;;;;;;;10.02;5.72;;;1.50;99.90;;;;;;5046946;28;20713;-81
2021/12/21 10:53:38;;;;;;;8.48;5.00;;;1.50;99.90;;;;;;5041630;28;20052;-81
2021/12/21 10:56:07;;;;;;;7.20;5.15;;;1.60;99.90;;;;;;5047388;28;20056;-81
2021/12/21 10:58:33;;;;;;;11.07;5.07;;;1.70;99.90;;;;;;5047804;28;20126;-81
2021/12/21 11:01:00;;;;;;;10.88;4.97;;;1.80;99.90;;;;;;5048255;28;20045;-81
2021/12/21 11:03:26;;;;;;;12.27;5.32;;;1.90;99.90;;;;;;5048854;28;20060;-81
2021/12/21 11:05:53;;;;;;;9.57;5.40;;;2.00;99.90;;;;;;5048281;28;20060;-79
2021/12/21 11:08:19;;;;;;;11.73;5.93;;;2.10;99.90;;;;;;5047724;28;20056;-81
2021/12/21 11:10:51;;;;;;;7.57;4.85;;;2.20;99.90;;;;;;5050820;28;20049;-81
2021/12/21 11:13:18;;;;;;;9.35;4.50;;;2.20;99.90;;;;;;5083092;28;20055;-81
2021/12/21 11:15:44;;;;;;;11.70;5.43;;;2.20;99.90;;;;;;5041397;28;20126;-81
2021/12/21 11:18:12;;;;;;;12.10;4.47;;;2.30;99.90;;;;;;5034972;28;20066;-82
2021/12/21 11:20:40;;;;;;;7.55;5.15;;;2.30;99.90;;;;;;5048658;28;20447;-82
2021/12/21 11:23:07;;;;;;;8.50;3.97;;;2.30;99.90;;;;;;5047673;28;20060;-81
2021/12/21 11:25:33;;;;;;;8.27;4.28;;;2.50;99.90;;;;;;5044404;28;20060;-81
2021/12/21 11:28:00;;;;;;;7.18;4.43;;;2.40;99.90;;;;;;5045116;28;20048;-81
2021/12/21 11:30:27;;;;;;;7.15;4.47;;;2.40;99.90;;;;;;5037341;28;20065;-81
2021/12/21 11:32:53;;;;;;;7.47;4.25;;;2.50;99.90;;;;;;5039617;28;20049;-81
2021/12/21 11:38:04;;;;;;;7.28;4.28;;;2.60;99.90;;;;;;5048530;28;20140;-81
2021/12/21 11:40:31;;;;;;;9.30;4.63;;;2.70;99.90;;;;;;5047227;28;20048;-82
2021/12/21 11:42:57;;;;;;;8.15;4.18;;;2.70;99.90;;;;;;5049187;28;20052;-81
2021/12/21 11:45:26;;;;;;;13.48;5.53;;;2.80;99.90;;;;;;5039646;28;20049;-82
2021/12/21 11:47:53;;;;;;;8.23;4.43;;;2.80;99.90;;;;;;5048394;28;20122;-82
2021/12/21 11:50:19;;;;;;;8.88;4.72;;;2.90;99.90;;;;;;5048369;28;20473;-81
2021/12/21 11:52:46;;;;;;;9.57;4.55;;;2.90;99.90;;;;;;5046524;28;20499;-81
2021/12/21 11:55:12;;;;;;;5.35;4.18;;;3.00;99.90;;;;;;5048068;28;20477;-82
2021/12/21 11:57:39;;;;;;;10.18;4.15;;;3.00;99.90;;;;;;5048582;28;20060;-82
2021/12/21 12:00:06;;;;;;;7.35;4.80;;;2.90;99.90;;;;;;5048157;28;20511;-81
2021/12/21 12:02:33;;;;;;;11.20;4.70;;;2.90;99.90;;;;;;5050322;28;20476;-81
2021/12/21 12:05:00;;;;;;;12.82;5.07;;;2.90;99.90;;;;;;5049239;28;20460;-80
2021/12/21 12:07:26;;;;;;;6.65;4.85;;;2.90;99.90;;;;;;5051405;28;20488;-82
2021/12/21 12:09:53;;;;;;;8.88;4.72;;;2.90;99.90;;;;;;5051697;28;20048;-81
2021/12/21 12:12:19;;;;;;;10.48;4.63;;;2.90;99.90;;;;;;5051273;28;20068;-82
2021/12/21 12:14:46;;;;;;;11.98;5.72;;;2.90;99.90;;;;;;5050845;28;20473;-82
2021/12/21 12:17:12;;;;;;;9.25;4.95;;;3.00;99.90;;;;;;5053170;28;20052;-82
2021/12/21 12:19:41;;;;;;;7.45;4.22;;;3.00;99.90;;;;;;5051140;28;20056;-82
2021/12/21 12:22:08;;;;;;;12.15;4.82;;;2.90;99.90;;;;;;5040889;28;20057;-82
2021/12/21 12:24:35;;;;;;;13.00;5.20;;;3.00;99.90;;;;;;5052308;28;20404;-81
2021/12/21 12:27:01;;;;;;;11.23;4.45;;;3.00;99.90;;;;;;5049990;28;20057;-81
2021/12/21 12:29:28;;;;;;;13.75;5.38;;;3.00;99.90;;;;;;5041212;28;20559;-81
2021/12/21 12:31:54;;;;;;;9.18;4.55;;;3.00;99.90;;;;;;5051609;28;20045;-83
2021/12/21 12:34:21;;;;;;;7.93;5.40;;;3.00;99.90;;;;;;5052015;28;20065;-82
2021/12/21 12:36:51;;;;;;;12.65;5.50;;;3.00;99.90;;;;;;5051050;28;20056;-82
2021/12/21 12:39:17;;;;;;;15.75;5.40;;;3.10;99.90;;;;;;5052937;28;20088;-82
2021/12/21 12:41:44;;;;;;;11.13;4.80;;;3.00;99.90;;;;;;5050677;28;20128;-82
2021/12/21 12:44:10;;;;;;;17.20;5.60;;;3.10;99.90;;;;;;5048268;28;20476;-81
2021/12/21 12:46:37;;;;;;;11.25;4.93;;;3.10;99.90;;;;;;5048888;28;20064;-82
2021/12/21 12:49:03;;;;;;;10.75;4.90;;;3.20;99.90;;;;;;5051404;28;20061;-81
2021/12/21 12:51:30;;;;;;;16.23;5.40;;;3.10;99.90;;;;;;5084913;28;20045;-82
2021/12/21 12:53:56;;;;;;;12.38;5.10;;;3.10;99.90;;;;;;5052576;28;20049;-82
2021/12/21 12:56:23;;;;;;;12.60;4.57;;;3.10;99.90;;;;;;5047017;28;20499;-82
2021/12/21 12:58:50;;;;;;;12.38;4.88;;;3.20;99.90;;;;;;5049600;28;20052;-82
2021/12/21 13:01:21;;;;;;;13.85;4.57;;;3.10;99.90;;;;;;5050013;28;20069;-82
2021/12/21 13:03:47;;;;;;;12.18;4.00;;;3.10;99.90;;;;;;5052060;28;20049;-82
2021/12/21 13:06:14;;;;;;;7.43;4.20;;;3.20;99.90;;;;;;5049045;28;20049;-81
2021/12/21 13:08:40;;;;;;;10.63;4.53;;;3.10;99.90;;;;;;5051405;28;20052;-81